Terminal Aerodrome Forecast
Issued by NWS Northern Indiana

Home | Current Version | Previous Version | Text Only | Print | Product List | Glossary Off
Versions: 1 2 3 4 5 6 7 8 9 10 11 12 13 14 15 16

654
FTUS43 KIWX 140720 AAA
TAFFWA
TAF AMD
KFWA 140720Z 1407/1506 33013G20KT P6SM BKN015
     FM141000 34012KT P6SM SCT020
     FM141200 34008KT P6SM FEW090
     FM142100 27006KT P6SM FEW040 BKN200=

USA.gov is the U.S. government's official web portal to all federal, state and local government web resources and services.